x

Central Dixon Entrance Buoy (46145) Wave Buoy

8:00am - Mon 8th Feb 2016 All times are PST. -8 hours from GMT.

  • Sig Wave height 8.5ft
  • Peak Period 15s
  • Wind
    20mph, 25mph gusts
  • Sea Temp 46°f
  • Air Temp 48°f
  • Sea Pressure 1015.6mb
  • Central Dixon Entrance Buoy
  • Central Dixon Entrance Buoy

More Historic Weather Station data

Upgrade to MSW Pro to gain access to the past 30 days of data for over 8000 Wavebouys and Weather Stations around the globe.

Join Pro

Comparision Forecast

View Surf forecast
   
Mon 02/08 8:00am 8.5ft 15s 20 25 mph 1015.6mb 46f 48f
7:00am 8ft 16s 22 25 mph 1015.4mb 46f 48f
6:00am 8.5ft 16s 22 29 mph 1015.3mb 46f 49f
5:00am 7.5ft 13s 18 20 mph 1015mb 46f 48f
4:00am 6.5ft 18s 9 11 mph 1015.6mb 46f 46f
3:00am 7ft 16s 9 11 mph 1016.2mb 45f 46f
2:00am 6ft 18s 11 13 mph 1016.9mb 45f 45f
1:00am 5ft 18s 13 16 mph 1017.6mb 45f 45f
12:00am 6ft 16s 11 13 mph 1018.6mb 45f 45f
Sun 02/07 11:00pm 6ft 17s 16 18 mph 1018.8mb 45f 44f
10:00pm 6ft 18s 22 25 mph 1019.1mb 45f 44f
9:00pm 5.5ft 5s 22 27 mph 1019.7mb 45f 43f
8:00pm 5ft 13s 22 27 mph 1020mb 45f 44f
7:00pm 5ft 13s 22 27 mph 1020.5mb 45f 44f
6:00pm 5.5ft 12s 22 25 mph 1021mb 45f 44f
5:00pm 5ft 14s 20 25 mph 1020.7mb 45f 44f
4:00pm 4.5ft 13s 11 16 mph 1021.3mb 46f 46f
3:00pm 5ft 12s 7 13 mph 1020.3mb 46f 47f
2:00pm 5.5ft 14s 13 18 mph 1019.4mb 46f 47f
1:00pm 5.5ft 6s 18 20 mph 1018.5mb 46f 46f
12:00pm 6ft 6s 18 22 mph 1018.9mb 46f 46f
11:00am 7ft 6s 16 20 mph 1019.1mb 45f 47f
10:00am 7ft 7s 20 25 mph 1018.1mb 45f 46f
9:00am 7ft 6s 25 31 mph 1016.3mb 45f 47f
8:00am 8ft 6s 27 34 mph 1016.2mb 45f 47f
7:00am 9ft 7s 25 31 mph 1016.1mb 45f 47f
6:00am 10ft 7s 27 34 mph 1015.6mb 45f 46f
5:00am 10.5ft 7s 29 40 mph 1015.6mb 45f 46f
4:00am 11ft 7s 31 40 mph 1015mb 45f 45f
3:00am 9.5ft 7s 38 47 mph 1015.3mb 45f 45f
2:00am 7.5ft 6s 36 43 mph 1016.6mb 45f 45f
1:00am 8ft 12s 29 38 mph 1017.9mb 45f 44f
12:00am 7ft 13s 29 36 mph 1019.1mb 45f 44f
Sat 02/06 11:00pm 7.5ft 12s 27 34 mph 1020.2mb 45f 44f
10:00pm 6.5ft 13s 29 36 mph 1021.4mb 45f 44f
9:00pm 7ft 12s 25 34 mph 1021.7mb 45f 45f
8:00pm 6.5ft 12s 22 27 mph 1022.8mb 45f 45f
7:00pm 7ft 12s 18 22 mph 1023.5mb 45f 44f
6:00pm 7ft 13s 18 22 mph 1023.9mb 45f 44f
5:00pm 7.5ft 12s 18 22 mph 1023.8mb 45f 44f
4:00pm 8ft 13s 13 18 mph 1023.9mb 45f 44f
3:00pm 7ft 14s 13 16 mph 1023.8mb 45f 44f
2:00pm 7.5ft 14s 9 13 mph 1024.1mb 45f 44f
1:00pm 7.5ft 14s 11 13 mph 1023.9mb 45f 44f
12:00pm 8ft 14s 16 18 mph 1023.1mb 45f 43f
11:00am 8.5ft 13s 13 16 mph 1022.6mb 45f 43f
10:00am 9ft 12s 13 16 mph 1021.4mb 45f 43f
9:00am 10ft 13s 11 16 mph 1020.7mb 45f 43f
8:00am 10ft 12s 16 20 mph 1019.4mb 45f 44f
7:00am 9.5ft 13s 18 22 mph 1018.5mb 45f 44f
6:00am 10ft 12s 20 25 mph 1017.6mb 45f 44f
5:00am 8.5ft 12s 22 29 mph 1016.6mb 45f 44f
4:00am 9ft 12s 25 31 mph 1015.2mb 45f 44f
3:00am 8.5ft 12s 25 31 mph 1013.5mb 45f 44f
2:00am 8ft 13s 13 25 mph 1012.5mb 45f 40f
1:00am 9ft 13s 7 9 mph 1011.2mb 45f 40f
12:00am 8ft 12s 13 20 mph 1009.7mb 45f 41f
Fri 02/05 11:00pm 10ft 13s 16 20 mph 1008.2mb 45f 42f
10:00pm 9ft 13s 13 16 mph 1007.1mb 45f 41f
9:00pm 10ft 13s 18 22 mph 1006.1mb 45f 41f
8:00pm 10ft 13s 16 20 mph 1005.4mb 45f 42f
7:00pm 9.5ft 13s 11 16 mph 1004.7mb 45f 42f
6:00pm 9ft 13s 16 20 mph 1003.9mb 45f 41f
5:00pm 8ft 12s 11 18 mph 1003mb 45f 43f
4:00pm 7.5ft 12s 4 7 mph 1002.1mb 45f 44f
3:00pm 7.5ft 12s 9 13 mph 1001.3mb 45f 44f
2:00pm 7ft 12s 7 9 mph 1000.9mb 45f 44f
1:00pm 6.5ft 14s 4 7 mph 1000.6mb 46f 44f
12:00pm 7ft 14s 9 18 mph 1000.6mb 46f 43f
11:00am 7ft 13s 7 9 mph 1000.9mb 45f 44f
10:00am 7.5ft 12s 18 22 mph 999.7mb 45f 43f
8:00am 9ft 11s 16 18 mph 999.3mb 45f 44f
7:00am 9.5ft 12s 13 18 mph 998.6mb 45f 45f
6:00am 11ft 14s 11 16 mph 998.7mb 45f 45f
5:00am 9ft 13s 13 16 mph 998.5mb 45f 45f
4:00am 9.5ft 12s 13 18 mph 997.8mb 45f 44f
3:00am 11ft 14s 16 20 mph 997.6mb 45f 44f
2:00am 9ft 14s 18 22 mph 996.6mb 46f 44f
1:00am 10.5ft 14s 16 22 mph 995.9mb 46f 44f
12:00am 11ft 13s 16 20 mph 994.9mb 46f 44f
Thu 02/04 11:00pm 11.5ft 12s 13 18 mph 993.6mb 46f 46f
10:00pm 13ft 14s 25 31 mph 992.8mb 46f 48f
9:00pm 12ft 14s 25 31 mph 992.9mb 46f 48f
8:00pm 11.5ft 15s 29 36 mph 993.4mb 46f 48f
7:00pm 11.5ft 14s 31 38 mph 994.2mb 46f 48f
6:00pm 11ft 15s 29 36 mph 996.1mb 46f 48f